createdAt,value
2022-10-22T00:03:25.424Z,70.19
2022-10-22T00:08:27.400Z,70.21
2022-10-22T00:13:29.365Z,70.44
2022-10-22T00:18:31.381Z,70.22
2022-10-22T00:23:33.582Z,70.60
2022-10-22T00:28:35.487Z,70.43
2022-10-22T00:33:37.557Z,70.10
2022-10-22T00:38:39.604Z,70.30
2022-10-22T00:43:58.554Z,69.73
2022-10-22T00:49:01.913Z,70.22
2022-10-22T00:54:07.254Z,69.92
2022-10-22T00:59:09.897Z,70.29
2022-10-22T01:04:11.872Z,70.39
2022-10-22T01:09:20.197Z,70.00
2022-10-22T01:14:40.584Z,70.03
2022-10-22T01:19:42.427Z,70.50
2022-10-22T01:24:52.841Z,69.99
2022-10-22T01:30:00.901Z,70.04
2022-10-22T01:35:08.985Z,70.22
2022-10-22T01:40:11.988Z,70.64
2022-10-22T01:45:15.081Z,70.40
2022-10-22T01:50:16.945Z,70.74
2022-10-22T01:55:32.061Z,70.14
2022-10-22T02:00:36.507Z,70.07
2022-10-22T02:05:38.432Z,70.59
2022-10-22T02:10:42.299Z,70.65
2022-10-22T02:15:46.047Z,69.96
2022-10-22T02:20:48.861Z,70.72
2022-10-22T02:25:54.139Z,70.62
2022-10-22T02:31:00.396Z,70.28
2022-10-22T02:36:03.064Z,70.74
2022-10-22T02:41:06.090Z,70.78
2022-10-22T02:46:08.858Z,70.78
2022-10-22T02:51:11.033Z,70.14
2022-10-22T02:56:14.232Z,70.69
2022-10-22T03:01:16.342Z,70.79
2022-10-22T03:06:18.680Z,70.43
2022-10-22T03:11:20.704Z,70.62
2022-10-22T03:16:22.593Z,70.52
2022-10-22T03:21:42.338Z,70.82
2022-10-22T03:26:46.034Z,70.54
2022-10-22T03:31:47.903Z,70.71
2022-10-22T03:36:51.600Z,70.90
2022-10-22T03:41:53.726Z,70.75
2022-10-22T03:46:58.679Z,70.92
2022-10-22T03:52:08.120Z,70.39
2022-10-22T03:57:10.344Z,70.90
2022-10-22T04:02:13.078Z,70.52
2022-10-22T04:07:15.089Z,71.01
2022-10-22T04:12:17.167Z,70.47
2022-10-22T04:17:19.173Z,70.52
2022-10-22T04:22:21.055Z,71.05
2022-10-22T04:27:23.091Z,71.29
2022-10-22T04:32:25.591Z,70.64
2022-10-22T04:37:27.557Z,70.90
2022-10-22T04:42:29.551Z,70.98
2022-10-22T04:47:31.557Z,71.44
2022-10-22T04:52:33.464Z,70.73
2022-10-22T04:57:35.538Z,71.07
2022-10-22T05:02:37.661Z,71.03
2022-10-22T05:07:39.817Z,70.69
2022-10-22T05:12:42.065Z,71.19
2022-10-22T05:17:44.043Z,70.28
2022-10-22T05:22:46.009Z,70.99
2022-10-22T05:27:51.169Z,71.23
2022-10-22T05:32:53.129Z,70.74
2022-10-22T05:37:58.063Z,70.85
2022-10-22T05:43:00.475Z,71.00
2022-10-22T05:48:02.403Z,71.37
2022-10-22T05:53:05.317Z,71.46
2022-10-22T05:58:07.329Z,71.20
2022-10-22T06:03:09.210Z,71.09
2022-10-22T06:08:18.200Z,71.06
2022-10-22T06:13:21.383Z,71.35
2022-10-22T06:18:23.427Z,71.51
2022-10-22T06:23:25.452Z,71.22
2022-10-22T06:28:27.617Z,71.11
2022-10-22T06:33:31.302Z,71.24
2022-10-22T06:38:34.178Z,71.09
2022-10-22T06:43:36.306Z,70.89
2022-10-22T06:48:38.756Z,70.67
2022-10-22T06:53:40.823Z,70.78
2022-10-22T06:58:42.893Z,70.71
2022-10-22T07:03:44.799Z,69.99
2022-10-22T07:08:46.738Z,70.07
2022-10-22T07:13:49.189Z,70.48
2022-10-22T07:18:51.858Z,70.63
2022-10-22T07:23:53.831Z,70.29
2022-10-22T07:28:55.815Z,70.01
2022-10-22T07:33:58.385Z,70.02
2022-10-22T07:39:00.851Z,69.39
2022-10-22T07:44:02.852Z,69.12
2022-10-22T07:49:04.830Z,70.24
2022-10-22T07:54:07.027Z,69.62
2022-10-22T07:59:09.333Z,69.95
2022-10-22T08:04:11.517Z,69.98
2022-10-22T08:09:13.513Z,69.81
2022-10-22T08:14:15.480Z,70.21
2022-10-22T08:19:21.380Z,69.69
2022-10-22T08:24:23.366Z,69.22
2022-10-22T08:29:26.878Z,68.93
2022-10-22T08:34:29.321Z,69.12
2022-10-22T08:39:31.196Z,68.52
2022-10-22T08:45:11.405Z,67.88
2022-10-22T08:50:16.123Z,67.13
2022-10-22T08:55:18.060Z,68.11
2022-10-22T09:00:22.308Z,67.52
2022-10-22T09:05:40.494Z,66.98
2022-10-22T09:10:46.421Z,67.99
2022-10-22T09:16:09.901Z,67.80
2022-10-22T09:21:21.374Z,67.71
2022-10-22T09:26:25.853Z,67.80
2022-10-22T09:31:30.286Z,68.50
2022-10-22T09:36:32.522Z,67.77
2022-10-22T09:41:34.546Z,67.86
2022-10-22T09:46:43.980Z,68.33
2022-10-22T09:51:56.360Z,68.12
2022-10-22T09:57:02.876Z,67.88
2022-10-22T10:02:20.400Z,67.59
2022-10-22T10:07:36.413Z,68.44
2022-10-22T10:12:56.684Z,68.39
2022-10-22T10:18:12.535Z,67.58
2022-10-22T10:23:14.527Z,67.54
2022-10-22T10:28:22.280Z,67.50
2022-10-22T10:33:31.686Z,67.59
2022-10-22T10:38:43.391Z,66.93
2022-10-22T10:44:05.542Z,67.34
2022-10-22T10:49:16.906Z,67.09
2022-10-22T10:54:26.476Z,66.46
2022-10-22T10:59:35.483Z,67.07
2022-10-22T11:04:43.277Z,66.50
2022-10-22T11:10:03.655Z,67.48
2022-10-22T11:15:20.838Z,66.72
2022-10-22T11:20:26.791Z,67.04
2022-10-22T11:25:45.554Z,67.48
2022-10-22T11:30:49.740Z,66.96
2022-10-22T11:35:52.801Z,67.56
2022-10-22T11:40:59.142Z,66.64
2022-10-22T11:46:24.427Z,67.13
2022-10-22T11:51:32.064Z,67.12
2022-10-22T11:56:37.572Z,67.18
2022-10-22T12:01:43.133Z,66.65
2022-10-22T12:07:03.329Z,66.88
2022-10-22T12:12:13.505Z,66.83
2022-10-22T12:17:16.445Z,67.40
2022-10-22T12:22:20.814Z,66.76
2022-10-22T12:27:26.896Z,67.18
2022-10-22T12:32:38.407Z,67.34
2022-10-22T12:37:40.757Z,67.35
2022-10-22T12:42:49.974Z,67.55
2022-10-22T12:47:56.007Z,67.59
2022-10-22T12:52:57.924Z,67.43
2022-10-22T12:58:00.344Z,67.12
2022-10-22T13:03:05.257Z,67.69
2022-10-22T13:08:12.096Z,67.43
2022-10-22T13:13:30.590Z,67.04
2022-10-22T13:18:33.256Z,67.53
2022-10-22T13:23:35.200Z,67.78
2022-10-22T13:28:37.198Z,67.27
2022-10-22T13:33:43.641Z,66.50
2022-10-22T13:38:45.866Z,67.35
2022-10-22T13:43:48.209Z,66.36
2022-10-22T13:48:52.638Z,67.25
2022-10-22T13:53:54.786Z,67.27
2022-10-22T13:58:56.776Z,67.28
2022-10-22T14:04:02.040Z,67.86
2022-10-22T14:09:05.767Z,67.73
2022-10-22T14:14:09.293Z,67.60
2022-10-22T14:19:15.255Z,67.68
2022-10-22T14:24:17.182Z,67.80
2022-10-22T14:29:19.356Z,67.86
2022-10-22T14:34:21.294Z,67.90
2022-10-22T14:39:23.205Z,67.84
2022-10-22T14:44:25.569Z,68.04
2022-10-22T14:49:27.607Z,68.14
2022-10-22T14:54:29.606Z,67.85
2022-10-22T14:59:32.385Z,68.01
2022-10-22T15:04:34.300Z,68.16
2022-10-22T15:09:36.211Z,68.14
2022-10-22T15:14:38.171Z,68.00
2022-10-22T15:19:40.053Z,67.86
2022-10-22T15:24:45.050Z,67.75
2022-10-22T15:29:47.095Z,67.82
2022-10-22T15:34:52.265Z,68.23
2022-10-22T15:39:54.384Z,68.06
2022-10-22T15:44:58.278Z,68.21
2022-10-22T15:50:00.895Z,67.58
2022-10-22T15:55:06.992Z,67.48
2022-10-22T16:00:09.283Z,67.12
2022-10-22T16:05:17.392Z,68.24
2022-10-22T16:10:19.264Z,67.83
2022-10-22T16:15:21.247Z,67.55
2022-10-22T16:20:23.233Z,68.17
2022-10-22T16:25:25.734Z,68.10
2022-10-22T16:30:27.619Z,68.28
2022-10-22T16:35:29.826Z,67.81
2022-10-22T16:40:31.749Z,68.21
2022-10-22T16:45:33.706Z,68.32
2022-10-22T16:50:38.875Z,68.45
2022-10-22T16:55:40.890Z,68.60
2022-10-22T17:00:42.964Z,68.83
2022-10-22T17:05:44.950Z,68.77
2022-10-22T17:10:47.010Z,68.73
2022-10-22T17:15:48.978Z,68.65
2022-10-22T17:20:50.967Z,68.65
2022-10-22T17:25:58.190Z,68.97
2022-10-22T17:31:07.754Z,68.50
2022-10-22T17:36:11.995Z,68.45
2022-10-22T17:41:17.615Z,68.98
2022-10-22T17:46:20.627Z,68.82
2022-10-22T17:51:23.538Z,68.55
2022-10-22T17:56:26.841Z,68.77
2022-10-22T18:01:30.091Z,68.98
2022-10-22T18:06:32.557Z,68.72
2022-10-22T18:11:36.164Z,68.74
2022-10-22T18:16:38.143Z,68.75
2022-10-22T18:21:40.120Z,67.92
2022-10-22T18:26:42.510Z,67.77
2022-10-22T18:31:44.910Z,68.88
2022-10-22T18:36:46.798Z,68.62
2022-10-22T18:41:48.740Z,68.53
2022-10-22T18:46:50.962Z,68.34
2022-10-22T18:51:53.129Z,68.82
2022-10-22T18:57:00.628Z,68.61
2022-10-22T19:02:05.271Z,68.71
2022-10-22T19:12:15.061Z,68.86
2022-10-22T19:17:17.009Z,68.37
2022-10-22T19:22:19.015Z,67.93
2022-10-22T19:27:21.100Z,68.27
2022-10-22T19:32:24.416Z,67.72
2022-10-22T19:37:28.435Z,68.50
2022-10-22T19:42:30.368Z,68.43
2022-10-22T19:47:32.415Z,67.77
2022-10-22T19:52:34.422Z,67.11
2022-10-22T19:57:37.623Z,68.30
2022-10-22T20:02:41.517Z,68.42
2022-10-22T20:07:43.762Z,68.37
2022-10-22T20:12:45.890Z,68.08
2022-10-22T20:17:48.048Z,67.81
2022-10-22T20:22:50.004Z,67.67
2022-10-22T20:27:51.934Z,67.91
2022-10-22T20:32:53.860Z,68.49
2022-10-22T20:37:55.805Z,68.51
2022-10-22T20:43:01.373Z,66.81
2022-10-22T20:48:04.053Z,68.79
2022-10-22T20:53:06.147Z,68.73
2022-10-22T20:58:08.105Z,68.36
2022-10-22T21:03:10.251Z,68.71
2022-10-22T21:08:17.356Z,67.70
2022-10-22T21:13:19.591Z,68.48
2022-10-22T21:18:21.505Z,68.54
2022-10-22T21:23:23.435Z,67.93
2022-10-22T21:28:25.957Z,68.35
2022-10-22T21:33:27.923Z,68.47
2022-10-22T21:38:29.986Z,68.27
2022-10-22T21:43:31.980Z,68.18
2022-10-22T21:48:34.113Z,68.28
2022-10-22T21:53:36.711Z,66.83
2022-10-22T21:58:38.657Z,68.30
2022-10-22T22:03:45.525Z,68.27
2022-10-22T22:08:48.446Z,68.37
2022-10-22T22:13:51.200Z,67.64
2022-10-22T22:18:53.332Z,68.30
2022-10-22T22:23:55.421Z,68.39
2022-10-22T22:29:00.292Z,67.59
2022-10-22T22:34:03.319Z,67.49
2022-10-22T22:39:06.339Z,68.17
2022-10-22T22:44:08.292Z,67.99
2022-10-22T22:49:10.433Z,67.55
2022-10-22T22:54:12.439Z,67.62
2022-10-22T22:59:14.383Z,67.21
2022-10-22T23:04:19.352Z,67.45
2022-10-22T23:14:28.028Z,67.64
2022-10-22T23:19:29.983Z,65.84
2022-10-22T23:24:31.889Z,66.92
2022-10-22T23:29:35.876Z,67.56
2022-10-22T23:34:37.893Z,67.69
2022-10-22T23:39:39.849Z,67.88
2022-10-22T23:44:41.867Z,67.91
2022-10-22T23:49:43.839Z,67.49
2022-10-22T23:54:45.810Z,67.02
2022-10-22T23:59:47.794Z,67.63
